createdAt,value
2023-04-22T00:01:24.532Z,38.47
2023-04-22T00:03:51.855Z,37.13
2023-04-22T00:06:19.126Z,34.85
2023-04-22T00:08:45.768Z,37.50
2023-04-22T00:11:12.303Z,36.40
2023-04-22T00:13:39.102Z,35.20
2023-04-22T00:16:05.796Z,35.20
2023-04-22T00:18:37.314Z,34.80
2023-04-22T00:21:04.813Z,35.10
2023-04-22T00:23:31.894Z,38.33
2023-04-22T00:25:58.522Z,33.70
2023-04-22T00:28:25.090Z,34.03
2023-04-22T00:30:51.592Z,32.53
2023-04-22T00:33:18.234Z,33.85
2023-04-22T00:35:46.811Z,31.90
2023-04-22T00:38:13.456Z,27.85
2023-04-22T00:40:40.467Z,31.77
2023-04-22T00:43:08.823Z,30.83
2023-04-22T00:45:37.159Z,30.95
2023-04-22T00:48:04.035Z,30.58
2023-04-22T00:50:30.905Z,30.25
2023-04-22T00:52:57.571Z,28.03
2023-04-22T00:55:24.730Z,29.00
2023-04-22T00:57:52.289Z,30.63
2023-04-22T01:00:20.577Z,30.13
2023-04-22T01:02:48.072Z,28.15
2023-04-22T01:05:14.836Z,29.73
2023-04-22T01:07:41.400Z,25.95
2023-04-22T01:10:08.587Z,26.55
2023-04-22T01:12:35.311Z,26.90
2023-04-22T01:15:04.656Z,29.40
2023-04-22T01:17:33.659Z,29.47
2023-04-22T01:20:00.873Z,28.73
2023-04-22T01:22:35.479Z,28.23
2023-04-22T01:25:03.391Z,28.05
2023-04-22T01:27:30.709Z,28.50
2023-04-22T01:29:57.503Z,24.53
2023-04-22T01:32:24.598Z,28.67
2023-04-22T01:34:51.493Z,26.45
2023-04-22T01:37:18.731Z,28.13
2023-04-22T01:39:46.919Z,27.40
2023-04-22T01:42:16.610Z,24.40
2023-04-22T01:44:43.204Z,23.08
2023-04-22T01:47:09.824Z,25.52
2023-04-22T01:49:36.411Z,26.42
2023-04-22T01:52:02.978Z,27.05
2023-04-22T01:54:29.693Z,23.03
2023-04-22T01:56:58.587Z,24.05
2023-04-22T01:59:25.422Z,27.10
2023-04-22T02:01:52.387Z,25.65
2023-04-22T02:04:19.227Z,26.83
2023-04-22T02:06:45.677Z,25.10
2023-04-22T02:09:12.303Z,25.92
2023-04-22T02:11:38.884Z,24.25
2023-04-22T02:14:05.513Z,25.40
2023-04-22T02:16:32.080Z,27.52
2023-04-22T02:18:58.779Z,22.37
2023-04-22T02:21:25.418Z,25.38
2023-04-22T02:23:52.214Z,28.30
2023-04-22T02:26:18.841Z,24.08
2023-04-22T02:28:45.384Z,25.90
2023-04-22T02:31:11.929Z,22.63
2023-04-22T02:33:39.059Z,28.75
2023-04-22T02:36:05.973Z,26.73
2023-04-22T02:38:32.480Z,29.20
2023-04-22T02:40:59.051Z,25.02
2023-04-22T02:43:25.753Z,24.07
2023-04-22T02:45:52.323Z,29.48
2023-04-22T02:48:18.807Z,24.40
2023-04-22T02:50:45.413Z,22.17
2023-04-22T02:53:11.910Z,23.65
2023-04-22T02:55:40.389Z,24.13
2023-04-22T02:58:07.051Z,23.40
2023-04-22T03:00:33.660Z,24.35
2023-04-22T03:03:01.018Z,23.63
2023-04-22T03:05:27.852Z,24.10
2023-04-22T03:07:54.678Z,21.20
2023-04-22T03:10:21.309Z,22.13
2023-04-22T03:12:48.263Z,25.35
2023-04-22T03:15:15.942Z,22.27
2023-04-22T03:17:43.628Z,27.02
2023-04-22T03:20:10.716Z,24.03
2023-04-22T03:22:37.453Z,24.90
2023-04-22T03:25:07.167Z,23.58
2023-04-22T03:27:33.949Z,21.30
2023-04-22T03:30:00.798Z,22.35
2023-04-22T03:32:27.440Z,22.27
2023-04-22T03:34:56.351Z,19.55
2023-04-22T03:37:23.266Z,21.20
2023-04-22T03:39:49.871Z,20.23
2023-04-22T03:42:16.438Z,22.75
2023-04-22T03:44:43.053Z,20.77
2023-04-22T03:47:09.702Z,22.85
2023-04-22T03:49:36.691Z,23.25
2023-04-22T03:52:03.866Z,21.10
2023-04-22T03:54:30.474Z,24.05
2023-04-22T03:56:56.950Z,24.60
2023-04-22T03:59:23.517Z,22.27
2023-04-22T04:01:52.920Z,28.00
2023-04-22T04:04:19.875Z,29.08
2023-04-22T04:06:46.851Z,28.10
2023-04-22T04:09:13.421Z,25.67
2023-04-22T04:11:39.962Z,24.38
2023-04-22T04:14:06.808Z,24.02
2023-04-22T04:16:33.972Z,29.25
2023-04-22T04:19:00.712Z,29.13
2023-04-22T04:21:27.707Z,27.90
2023-04-22T04:23:54.166Z,26.40
2023-04-22T04:26:20.696Z,25.83
2023-04-22T04:28:49.290Z,24.92
2023-04-22T04:31:15.933Z,26.23
2023-04-22T04:33:42.740Z,24.13
2023-04-22T04:36:10.807Z,30.92
2023-04-22T04:38:38.086Z,23.92
2023-04-22T04:41:05.091Z,24.35
2023-04-22T04:43:32.062Z,27.08
2023-04-22T04:45:58.659Z,24.03
2023-04-22T04:48:25.826Z,24.67
2023-04-22T04:50:54.138Z,23.02
2023-04-22T04:53:22.515Z,26.23
2023-04-22T04:55:49.467Z,24.52
2023-04-22T04:58:16.050Z,28.03
2023-04-22T05:00:42.568Z,22.42
2023-04-22T05:03:09.212Z,23.67
2023-04-22T05:05:36.508Z,23.90
2023-04-22T05:08:03.049Z,22.90
2023-04-22T05:10:29.793Z,30.10
2023-04-22T05:12:56.391Z,23.23
2023-04-22T05:15:23.238Z,22.50
2023-04-22T05:17:49.798Z,27.15
2023-04-22T05:20:16.455Z,25.10
2023-04-22T05:22:44.874Z,24.87
2023-04-22T05:25:11.568Z,26.98
2023-04-22T05:27:38.154Z,24.95
2023-04-22T05:30:06.262Z,22.85
2023-04-22T05:32:33.038Z,31.25
2023-04-22T05:34:59.660Z,23.73
2023-04-22T05:37:26.271Z,26.45
2023-04-22T05:39:52.864Z,26.58
2023-04-22T05:42:19.353Z,26.95
2023-04-22T05:44:46.089Z,22.38
2023-04-22T05:47:12.651Z,26.30
2023-04-22T05:49:39.659Z,25.42
2023-04-22T05:52:06.708Z,26.00
2023-04-22T05:54:33.245Z,23.48
2023-04-22T05:57:00.011Z,27.58
2023-04-22T05:59:26.962Z,28.00
2023-04-22T06:01:53.586Z,28.02
2023-04-22T06:04:20.688Z,23.55
2023-04-22T06:06:48.096Z,29.35
2023-04-22T06:09:14.735Z,28.77
2023-04-22T06:11:41.402Z,25.13
2023-04-22T06:14:08.227Z,30.53
2023-04-22T06:16:34.870Z,31.83
2023-04-22T06:19:01.521Z,28.77
2023-04-22T06:21:28.578Z,35.38
2023-04-22T06:23:56.131Z,28.13
2023-04-22T06:26:23.163Z,28.13
2023-04-22T06:28:49.702Z,29.80
2023-04-22T06:31:17.571Z,29.27
2023-04-22T06:33:46.321Z,31.67
2023-04-22T06:36:14.052Z,37.13
2023-04-22T06:38:40.698Z,36.05
2023-04-22T06:41:07.238Z,34.97
2023-04-22T06:43:34.077Z,30.17
2023-04-22T06:46:01.220Z,36.88
2023-04-22T06:48:27.731Z,34.97
2023-04-22T06:50:54.352Z,34.47
2023-04-22T06:53:21.218Z,35.47
2023-04-22T06:55:47.984Z,38.58
2023-04-22T06:58:14.628Z,37.90
2023-04-22T07:00:41.239Z,36.57
2023-04-22T07:03:07.933Z,38.65
2023-04-22T07:05:34.794Z,34.55
2023-04-22T07:08:01.423Z,30.15
2023-04-22T07:10:28.264Z,33.17
2023-04-22T07:12:54.822Z,32.97
2023-04-22T07:15:21.456Z,31.40
2023-04-22T07:17:48.090Z,32.47
2023-04-22T07:20:15.080Z,32.55
2023-04-22T07:22:42.248Z,34.90
2023-04-22T07:25:09.440Z,37.00
2023-04-22T07:27:37.277Z,36.40
2023-04-22T07:30:04.986Z,38.05
2023-04-22T07:32:31.857Z,39.15
2023-04-22T07:34:58.500Z,36.17
2023-04-22T07:37:25.771Z,37.93
2023-04-22T07:39:52.412Z,43.50
2023-04-22T07:42:19.168Z,41.45
2023-04-22T07:44:48.023Z,33.70
2023-04-22T07:47:15.023Z,39.40
2023-04-22T07:49:43.659Z,41.00
2023-04-22T07:52:10.433Z,47.08
2023-04-22T07:54:36.994Z,45.83
2023-04-22T07:57:03.702Z,45.05
2023-04-22T07:59:30.402Z,41.28
2023-04-22T08:01:57.154Z,48.17
2023-04-22T08:04:24.389Z,48.13
2023-04-22T08:06:51.376Z,49.10
2023-04-22T08:09:18.014Z,51.83
2023-04-22T08:11:44.883Z,54.15
2023-04-22T08:14:11.583Z,52.80
2023-04-22T08:16:40.544Z,51.60
2023-04-22T08:19:07.167Z,52.30
2023-04-22T08:21:34.291Z,59.00
2023-04-22T08:24:02.095Z,49.55
2023-04-22T08:26:28.934Z,50.70
2023-04-22T08:28:56.139Z,53.85
2023-04-22T08:31:22.816Z,50.63
2023-04-22T08:33:50.776Z,58.72
2023-04-22T08:36:17.783Z,58.85
2023-04-22T08:38:49.924Z,54.97
2023-04-22T08:41:19.335Z,61.42
2023-04-22T08:43:46.863Z,61.10
2023-04-22T08:46:15.844Z,58.38
2023-04-22T08:48:49.459Z,61.20
2023-04-22T08:51:17.425Z,56.93
2023-04-22T08:53:44.938Z,57.00
2023-04-22T08:56:13.101Z,63.60
2023-04-22T08:58:43.582Z,58.10
2023-04-22T09:01:10.416Z,48.38
2023-04-22T09:03:39.834Z,53.20
2023-04-22T09:06:10.554Z,57.17
2023-04-22T09:08:37.370Z,48.90
2023-04-22T09:11:04.506Z,52.05
2023-04-22T09:13:31.388Z,52.55
2023-04-22T09:16:00.192Z,52.07
2023-04-22T09:18:27.189Z,55.58
2023-04-22T09:20:56.274Z,51.35
2023-04-22T09:23:22.968Z,48.53
2023-04-22T09:25:50.085Z,45.55
2023-04-22T09:28:20.219Z,51.70
2023-04-22T09:30:47.093Z,50.58
2023-04-22T09:33:14.208Z,47.92
2023-04-22T09:35:45.229Z,46.80
2023-04-22T09:38:12.991Z,43.97
2023-04-22T09:40:43.612Z,48.67
2023-04-22T09:43:13.354Z,51.75
2023-04-22T09:45:43.030Z,47.55
2023-04-22T09:48:14.892Z,45.95
2023-04-22T09:50:45.660Z,45.80
2023-04-22T09:53:20.822Z,42.47
2023-04-22T09:55:51.921Z,39.50
2023-04-22T09:58:23.738Z,41.15
2023-04-22T10:00:53.867Z,40.75
2023-04-22T10:03:20.792Z,43.25
2023-04-22T10:05:47.783Z,39.80
2023-04-22T10:08:16.870Z,36.47
2023-04-22T10:10:44.057Z,37.17
2023-04-22T10:13:11.143Z,38.60
2023-04-22T10:15:52.850Z,37.83
2023-04-22T10:18:24.425Z,37.93
2023-04-22T10:20:51.745Z,37.80
2023-04-22T10:23:23.221Z,37.00
2023-04-22T10:25:53.824Z,33.38
2023-04-22T10:28:22.549Z,28.75
2023-04-22T10:30:50.667Z,29.03
2023-04-22T10:33:32.041Z,33.88
2023-04-22T10:36:20.171Z,28.42
2023-04-22T10:39:15.589Z,29.35
2023-04-22T10:41:53.521Z,29.08
2023-04-22T10:44:22.407Z,26.67
2023-04-22T10:46:54.954Z,27.58
2023-04-22T10:49:24.702Z,23.15
2023-04-22T10:51:52.475Z,19.08
2023-04-22T10:54:31.534Z,19.70
2023-04-22T10:57:12.152Z,20.77
2023-04-22T10:59:49.990Z,23.58
2023-04-22T11:02:17.524Z,22.85
2023-04-22T11:04:44.908Z,21.40
2023-04-22T11:07:22.629Z,19.90
2023-04-22T11:09:58.985Z,22.63
2023-04-22T11:12:42.286Z,20.20
2023-04-22T11:15:14.015Z,21.55
2023-04-22T11:17:44.606Z,22.63
2023-04-22T11:20:12.989Z,18.40
2023-04-22T11:22:47.960Z,18.30
2023-04-22T11:25:23.393Z,18.38
2023-04-22T11:27:52.681Z,18.85
2023-04-22T11:30:22.813Z,19.30
2023-04-22T11:32:50.622Z,19.08
2023-04-22T11:35:32.424Z,19.67
2023-04-22T11:38:04.151Z,21.50
2023-04-22T11:40:37.760Z,16.02
2023-04-22T11:43:07.272Z,17.98
2023-04-22T11:45:38.877Z,17.00
2023-04-22T11:48:07.672Z,16.23
2023-04-22T11:50:36.351Z,18.23
2023-04-22T11:53:05.179Z,18.48
2023-04-22T11:55:39.419Z,20.00
2023-04-22T11:58:11.811Z,17.58
2023-04-22T12:00:47.173Z,17.50
2023-04-22T12:03:30.189Z,20.10
2023-04-22T12:06:01.835Z,18.17
2023-04-22T12:08:31.582Z,18.42
2023-04-22T12:11:05.772Z,20.20
2023-04-22T12:13:38.659Z,18.43
2023-04-22T12:16:09.844Z,18.63
2023-04-22T12:18:39.107Z,18.92
2023-04-22T12:21:10.560Z,17.25
2023-04-22T12:23:48.424Z,17.05
2023-04-22T12:26:25.875Z,14.63
2023-04-22T12:29:06.582Z,18.63
2023-04-22T12:31:34.925Z,20.98
2023-04-22T12:34:02.125Z,18.40
2023-04-22T12:36:31.410Z,14.05
2023-04-22T12:39:00.811Z,14.63
2023-04-22T12:41:29.790Z,12.35
2023-04-22T12:43:56.368Z,13.27
2023-04-22T12:46:23.201Z,12.35
2023-04-22T12:48:49.806Z,11.98
2023-04-22T12:51:23.999Z,14.97
2023-04-22T12:53:50.622Z,12.43
2023-04-22T12:56:17.254Z,13.48
2023-04-22T12:58:43.897Z,13.13
2023-04-22T13:01:11.252Z,13.65
2023-04-22T13:03:37.977Z,14.40
2023-04-22T13:06:04.977Z,14.65
2023-04-22T13:08:31.652Z,14.43
2023-04-22T13:10:59.305Z,14.75
2023-04-22T13:13:25.989Z,13.45
2023-04-22T13:15:54.327Z,13.63
2023-04-22T13:18:22.822Z,14.25
2023-04-22T13:20:49.407Z,15.55
2023-04-22T13:23:17.128Z,14.23
2023-04-22T13:25:44.277Z,14.18
2023-04-22T13:28:11.559Z,14.43
2023-04-22T13:30:41.072Z,15.88
2023-04-22T13:33:07.680Z,15.50
2023-04-22T13:35:34.425Z,14.27
2023-04-22T13:38:02.267Z,15.98
2023-04-22T13:40:31.234Z,16.43
2023-04-22T13:42:57.952Z,14.27
2023-04-22T13:45:25.826Z,17.05
2023-04-22T13:47:53.899Z,13.27
2023-04-22T13:50:20.946Z,13.88
2023-04-22T13:52:48.143Z,12.90
2023-04-22T13:55:15.173Z,14.95
2023-04-22T13:57:41.696Z,14.07
2023-04-22T14:00:09.664Z,12.50
2023-04-22T14:02:36.575Z,11.85
2023-04-22T14:05:05.435Z,15.17
2023-04-22T14:07:32.028Z,12.18
2023-04-22T14:09:58.635Z,12.30
2023-04-22T14:12:25.446Z,15.85
2023-04-22T14:14:52.090Z,13.20
2023-04-22T14:17:21.944Z,16.53
2023-04-22T14:19:51.405Z,19.27
2023-04-22T14:22:18.014Z,17.42
2023-04-22T14:24:44.511Z,12.70
2023-04-22T14:27:12.528Z,14.52
2023-04-22T14:29:39.606Z,25.53
2023-04-22T14:32:06.520Z,17.45
2023-04-22T14:34:33.298Z,12.10
2023-04-22T14:36:59.947Z,12.70
2023-04-22T14:39:26.490Z,14.77
2023-04-22T14:41:54.976Z,13.13
2023-04-22T14:44:21.840Z,12.32
2023-04-22T14:46:48.534Z,12.15
2023-04-22T14:49:15.212Z,13.15
2023-04-22T14:51:44.112Z,12.05
2023-04-22T14:54:10.712Z,8.63
2023-04-22T14:56:37.248Z,10.18
2023-04-22T14:59:03.813Z,10.20
2023-04-22T15:01:34.637Z,11.40
2023-04-22T15:04:01.583Z,12.20
2023-04-22T15:06:28.392Z,11.47
2023-04-22T15:08:57.153Z,11.43
2023-04-22T15:11:32.101Z,9.68
2023-04-22T15:13:58.836Z,14.20
2023-04-22T15:16:25.402Z,11.15
2023-04-22T15:18:52.077Z,11.27
2023-04-22T15:21:18.580Z,10.77
2023-04-22T15:23:45.105Z,9.55
2023-04-22T15:26:12.627Z,9.80
2023-04-22T15:28:40.850Z,9.50
2023-04-22T15:31:07.733Z,10.20
2023-04-22T15:33:36.748Z,10.25
2023-04-22T15:36:05.414Z,9.70
2023-04-22T15:38:31.993Z,10.93
2023-04-22T15:41:00.904Z,12.07
2023-04-22T15:43:27.660Z,10.00
2023-04-22T15:45:58.327Z,16.15
2023-04-22T15:48:25.155Z,20.88
2023-04-22T15:50:51.991Z,16.67
2023-04-22T15:53:21.343Z,12.30
2023-04-22T15:55:48.758Z,12.77
2023-04-22T15:58:16.077Z,12.00
2023-04-22T16:00:42.688Z,10.52
2023-04-22T16:03:10.567Z,12.95
2023-04-22T16:05:37.319Z,12.23
2023-04-22T16:08:04.360Z,15.77
2023-04-22T16:10:40.977Z,17.42
2023-04-22T16:13:07.683Z,18.75
2023-04-22T16:15:37.397Z,20.27
2023-04-22T16:18:04.939Z,9.70
2023-04-22T16:20:37.347Z,11.83
2023-04-22T16:23:07.655Z,12.05
2023-04-22T16:25:34.687Z,16.58
2023-04-22T16:28:03.471Z,15.05
2023-04-22T16:30:32.348Z,8.45
2023-04-22T16:32:59.485Z,9.40
2023-04-22T16:35:26.337Z,10.90
2023-04-22T16:37:53.026Z,10.48
2023-04-22T16:40:19.671Z,9.40
2023-04-22T16:42:46.536Z,9.45
2023-04-22T16:45:15.941Z,10.40
2023-04-22T16:47:44.852Z,9.88
2023-04-22T16:50:12.441Z,9.75
2023-04-22T16:52:39.892Z,10.20
2023-04-22T16:55:07.623Z,11.57
2023-04-22T16:57:34.361Z,7.57
2023-04-22T17:00:06.048Z,8.30
2023-04-22T17:02:33.213Z,8.35
2023-04-22T17:05:05.300Z,7.82
2023-04-22T17:07:32.198Z,8.73
2023-04-22T17:09:59.207Z,7.63
2023-04-22T17:12:25.779Z,7.72
2023-04-22T17:14:52.410Z,7.78
2023-04-22T17:17:18.938Z,8.27
2023-04-22T17:19:45.587Z,11.23
2023-04-22T17:22:12.562Z,11.60
2023-04-22T17:24:39.137Z,10.57
2023-04-22T17:27:05.845Z,8.95
2023-04-22T17:29:32.460Z,7.53
2023-04-22T17:31:59.205Z,7.47
2023-04-22T17:34:27.296Z,7.43
2023-04-22T17:37:01.381Z,8.02
2023-04-22T17:39:28.049Z,6.68
2023-04-22T17:41:54.777Z,8.38
2023-04-22T17:44:23.481Z,7.38
2023-04-22T17:46:52.453Z,9.00
2023-04-22T17:49:19.129Z,8.55
2023-04-22T17:51:45.737Z,9.75
2023-04-22T17:54:12.330Z,8.75
2023-04-22T17:56:38.839Z,6.55
2023-04-22T17:59:05.512Z,7.47
2023-04-22T18:01:32.332Z,8.45
2023-04-22T18:03:59.288Z,8.32
2023-04-22T18:06:26.167Z,9.55
2023-04-22T18:08:52.897Z,7.78
2023-04-22T18:11:19.530Z,6.80
2023-04-22T18:13:46.072Z,9.20
2023-04-22T18:16:14.956Z,5.60
2023-04-22T18:18:41.772Z,6.10
2023-04-22T18:21:08.354Z,5.30
2023-04-22T18:23:35.528Z,7.60
2023-04-22T18:26:13.832Z,12.00
2023-04-22T18:28:41.107Z,7.78
2023-04-22T18:31:08.136Z,7.80
2023-04-22T18:33:35.021Z,6.75
2023-04-22T18:36:01.695Z,7.03
2023-04-22T18:38:29.045Z,7.47
2023-04-22T18:40:55.703Z,8.90
2023-04-22T18:43:22.525Z,7.18
2023-04-22T18:45:49.109Z,8.02
2023-04-22T18:48:16.114Z,7.90
2023-04-22T18:50:42.626Z,6.97
2023-04-22T18:53:09.290Z,7.85
2023-04-22T18:55:35.806Z,7.63
2023-04-22T18:58:02.397Z,7.20
2023-04-22T19:00:29.282Z,8.93
2023-04-22T19:02:56.246Z,6.75
2023-04-22T19:05:22.885Z,7.78
2023-04-22T19:07:49.742Z,9.40
2023-04-22T19:10:16.339Z,10.75
2023-04-22T19:12:42.891Z,8.70
2023-04-22T19:15:12.424Z,8.18
2023-04-22T19:17:39.278Z,10.23
2023-04-22T19:20:06.895Z,9.15
2023-04-22T19:22:33.563Z,8.45
2023-04-22T19:25:01.089Z,9.80
2023-04-22T19:27:27.735Z,10.73
2023-04-22T19:29:54.262Z,9.35
2023-04-22T19:32:21.129Z,9.77
2023-04-22T19:34:47.805Z,10.68
2023-04-22T19:37:14.385Z,9.20
2023-04-22T19:39:41.301Z,10.25
2023-04-22T19:42:08.292Z,10.32
2023-04-22T19:44:34.822Z,10.18
2023-04-22T19:47:01.552Z,11.52
2023-04-22T19:49:31.048Z,11.30
2023-04-22T19:51:58.366Z,11.32
2023-04-22T19:54:28.164Z,12.13
2023-04-22T19:56:56.346Z,11.13
2023-04-22T19:59:25.586Z,9.30
2023-04-22T20:01:55.746Z,12.30
2023-04-22T20:04:22.875Z,11.90
2023-04-22T20:06:51.640Z,11.05
2023-04-22T20:09:18.789Z,12.70
2023-04-22T20:11:46.205Z,13.65
2023-04-22T20:14:13.771Z,13.10
2023-04-22T20:16:42.361Z,15.60
2023-04-22T20:19:09.638Z,15.25
2023-04-22T20:21:36.817Z,13.65
2023-04-22T20:24:04.543Z,18.70
2023-04-22T20:26:35.157Z,15.93
2023-04-22T20:29:03.307Z,12.90
2023-04-22T20:31:31.122Z,13.13
2023-04-22T20:33:58.198Z,14.35
2023-04-22T20:36:26.149Z,16.88
2023-04-22T20:39:00.556Z,17.43
2023-04-22T20:41:27.288Z,18.58
2023-04-22T20:43:55.187Z,17.13
2023-04-22T20:46:24.438Z,19.90
2023-04-22T20:48:51.656Z,18.20
2023-04-22T20:51:18.240Z,20.13
2023-04-22T20:53:45.576Z,19.92
2023-04-22T20:56:12.140Z,19.65
2023-04-22T20:58:38.825Z,20.35
2023-04-22T21:01:09.299Z,22.27
2023-04-22T21:03:39.185Z,19.53
2023-04-22T21:06:06.539Z,18.92
2023-04-22T21:08:34.204Z,22.13
2023-04-22T21:11:01.003Z,23.73
2023-04-22T21:13:28.897Z,21.65
2023-04-22T21:16:02.709Z,22.87
2023-04-22T21:18:32.767Z,22.33
2023-04-22T21:21:02.652Z,23.73
2023-04-22T21:23:29.741Z,21.98
2023-04-22T21:25:59.351Z,23.13
2023-04-22T21:28:26.371Z,22.73
2023-04-22T21:30:53.521Z,23.40
2023-04-22T21:33:20.919Z,22.17
2023-04-22T21:35:47.607Z,25.23
2023-04-22T21:38:16.378Z,21.83
2023-04-22T21:40:42.992Z,21.67
2023-04-22T21:43:09.539Z,26.10
2023-04-22T21:45:36.037Z,23.45
2023-04-22T21:48:03.961Z,24.77
2023-04-22T21:50:31.534Z,28.55
2023-04-22T21:52:59.795Z,25.67
2023-04-22T21:55:26.596Z,25.85
2023-04-22T21:57:53.202Z,23.30
2023-04-22T22:00:20.008Z,24.85
2023-04-22T22:02:48.245Z,28.48
2023-04-22T22:05:15.835Z,26.30
2023-04-22T22:07:45.025Z,25.60
2023-04-22T22:10:18.273Z,24.15
2023-04-22T22:12:45.670Z,25.40
2023-04-22T22:15:12.373Z,25.02
2023-04-22T22:17:40.102Z,22.10
2023-04-22T22:20:12.510Z,25.95
2023-04-22T22:22:43.106Z,25.63
2023-04-22T22:25:13.187Z,28.33
2023-04-22T22:27:41.335Z,26.83
2023-04-22T22:30:08.915Z,25.63
2023-04-22T22:32:36.690Z,27.67
2023-04-22T22:35:03.622Z,24.33
2023-04-22T22:37:30.390Z,24.85
2023-04-22T22:39:57.333Z,26.70
2023-04-22T22:42:23.916Z,26.70
2023-04-22T22:44:50.620Z,22.25
2023-04-22T22:47:17.857Z,22.38
2023-04-22T22:49:45.278Z,23.90
2023-04-22T22:52:12.707Z,22.05
2023-04-22T22:54:40.533Z,19.10
2023-04-22T22:57:07.709Z,19.52
2023-04-22T22:59:35.872Z,18.35
2023-04-22T23:02:03.422Z,15.68
2023-04-22T23:04:30.493Z,15.20
2023-04-22T23:06:57.486Z,17.63
2023-04-22T23:09:24.127Z,13.95
2023-04-22T23:11:55.462Z,12.90
2023-04-22T23:14:23.373Z,14.85
2023-04-22T23:16:50.126Z,10.32
2023-04-22T23:19:18.139Z,10.97
2023-04-22T23:21:45.790Z,9.23
2023-04-22T23:24:14.408Z,8.85
2023-04-22T23:26:41.566Z,7.32
2023-04-22T23:29:08.654Z,6.63
2023-04-22T23:31:35.605Z,8.70
2023-04-22T23:34:04.835Z,9.25
2023-04-22T23:36:36.407Z,8.15
2023-04-22T23:39:03.933Z,10.35
2023-04-22T23:41:30.705Z,9.80
2023-04-22T23:43:57.262Z,7.77
2023-04-22T23:46:23.844Z,6.85
2023-04-22T23:48:50.521Z,12.95
2023-04-22T23:51:17.418Z,7.93
2023-04-22T23:53:44.765Z,7.10
2023-04-22T23:56:12.905Z,10.20
2023-04-22T23:58:40.241Z,8.88
